Aluminator — WDC7587 — position and weather

sailwx.info

Track history (hours):
 
Tides and Currents Weather Stations Pressure Air Temp Water Temp Dewpoint Dewpoint Depression Visibility Wind Speed Wind Dir Waves Ship Positions

Aluminator

Owner: Aluminator Water Taxi, Inc., Bellevue, WA. More information available from US FCC via Universal Licensing System.

Last reported at 2017-Jun-28 21:50 UTC. Time now 2017-Jun-28 22:40 UTC.
Position N 47°43' W 122°24'.

Length 11 m; draft 1 m.

Type: Passenger vessel. MMSI: 367073680.

Date/timePositionNaut miles runAvg speedWind from/ knotsBaromVisibWave heightAir tempDewpointWater temp
2017-Jun-28 21:50N 47°43' W 122°24'0 0.9
2017-Jun-28 21:19N 47°44' W 122°24'0 0.5
2017-Jun-28 21:01N 47°44' W 122°24'1 1.2
2017-Jun-28 20:30N 47°43' W 122°24'1 1.7
2017-Jun-28 20:00N 47°44' W 122°24'1 1.0
2017-Jun-28 19:30N 47°44' W 122°24'2 4.8
2017-Jun-28 19:01N 47°41' W 122°24'0 0.0
2017-Jun-28 15:36N 47°41' W 122°24'0 0.0
2017-Jun-28 15:31N 47°41' W 122°24'  
2017-Jun-21 19:21N 47°35' W 122°23'1 1.8
2017-Jun-21 19:00N 47°36' W 122°23'2 3.5
2017-Jun-21 18:31N 47°37' W 122°21'2 1.2
2017-Jun-21 17:03N 47°35' W 122°23'0 0.0
2017-Jun-21 17:01N 47°35' W 122°23'  
Track history (hours):
 
Tides and Currents Weather Stations Pressure Air Temp Water Temp Dewpoint Dewpoint Depression Visibility Wind Speed Wind Dir Waves Ship Positions

Aluminator

Owner: Aluminator Water Taxi, Inc., Bellevue, WA. More information available from US FCC via Universal Licensing System.

Last reported at 2017-Jun-28 21:50 UTC. Time now 2017-Jun-28 22:40 UTC.
Position N 47°43' W 122°24'.

Length 11 m; draft 1 m.

Type: Passenger vessel. MMSI: 367073680.

Date/timePositionNaut miles runAvg speedWind from/ knotsBaromVisibWave heightAir tempDewpointWater temp
2017-Jun-28 21:50N 47°43' W 122°24'0 0.9
2017-Jun-28 21:19N 47°44' W 122°24'0 0.5
2017-Jun-28 21:01N 47°44' W 122°24'1 1.2
2017-Jun-28 20:30N 47°43' W 122°24'1 1.7
2017-Jun-28 20:00N 47°44' W 122°24'1 1.0
2017-Jun-28 19:30N 47°44' W 122°24'2 4.8
2017-Jun-28 19:01N 47°41' W 122°24'0 0.0
2017-Jun-28 15:36N 47°41' W 122°24'0 0.0
2017-Jun-28 15:31N 47°41' W 122°24'  
2017-Jun-21 19:21N 47°35' W 122°23'1 1.8
2017-Jun-21 19:00N 47°36' W 122°23'2 3.5
2017-Jun-21 18:31N 47°37' W 122°21'2 1.2
2017-Jun-21 17:03N 47°35' W 122°23'0 0.0
2017-Jun-21 17:01N 47°35' W 122°23'  

Dump ship's entire track history